Time;durP1;ratioP1;P1;durP2;ratioP2;P2;SDS_P1;SDS_P2;PMS_P1;PMS_P2;Temp;Humidity;BMP_temperature;BMP_pressure;BME280_temperature;BME280_humidity;BME280_pressure;Samples;Min_cycle;Max_cycle;Signal;HPM_P1;HPM_P2
2021/09/12 00:02:07;;;;;;;10.60;7.47;;;;;;;24.94;40.58;99516.61;1662147;84;21050;-41
2021/09/12 00:04:36;;;;;;;13.68;8.25;;;;;;;24.94;40.57;99517.45;1679744;83;21039;-41
2021/09/12 00:07:04;;;;;;;12.95;7.83;;;;;;;24.94;40.57;99516.61;1660898;84;21099;-40
2021/09/12 00:09:31;;;;;;;10.50;7.97;;;;;;;24.94;40.58;99520.14;1660583;84;21093;-41
2021/09/12 00:11:57;;;;;;;10.98;8.43;;;;;;;24.95;40.60;99515.59;1674164;83;21099;-39
2021/09/12 00:14:24;;;;;;;11.33;7.75;;;;;;;24.95;40.60;99520.50;1653188;84;21114;-40
2021/09/12 00:16:52;;;;;;;11.12;8.73;;;;;;;24.95;40.60;99512.91;1661866;83;21111;-42
2021/09/12 00:19:20;;;;;;;10.35;7.65;;;;;;;24.95;40.59;99513.78;1668805;83;21069;-41
2021/09/12 00:21:48;;;;;;;10.10;8.03;;;;;;;24.95;40.59;99523.20;1673165;83;21100;-40
2021/09/12 00:24:15;;;;;;;13.18;8.23;;;;;;;24.96;40.61;99526.22;1668665;83;21467;-41
2021/09/12 00:26:42;;;;;;;11.75;8.10;;;;;;;24.96;40.60;99519.49;1669627;83;21023;-42
2021/09/12 00:29:08;;;;;;;11.63;8.53;;;;;;;24.96;40.61;99522.69;1677774;83;22188;-41
2021/09/12 00:31:34;;;;;;;11.63;8.15;;;;;;;24.96;40.60;99517.31;1676266;83;21051;-41
2021/09/12 00:34:01;;;;;;;13.45;8.88;;;;;;;24.96;40.62;99520.84;1704039;82;21119;-41
2021/09/12 00:36:27;;;;;;;11.48;8.45;;;;;;;24.95;40.62;99519.16;1670446;83;21132;-41
2021/09/12 00:38:54;;;;;;;12.03;8.68;;;;;;;24.94;40.62;99514.77;1724062;81;20968;-38
2021/09/12 00:41:21;;;;;;;12.33;8.35;;;;;;;24.97;40.60;99523.05;1669840;83;21514;-39
2021/09/12 00:43:49;;;;;;;12.88;8.83;;;;;;;24.97;40.61;99520.36;1658464;83;21028;-41
2021/09/12 00:46:16;;;;;;;13.25;8.90;;;;;;;24.96;40.61;99520.00;1682120;83;22057;-41
2021/09/12 00:48:42;;;;;;;13.05;8.70;;;;;;;24.97;40.62;99521.71;1665248;83;21072;-42
2021/09/12 00:51:09;;;;;;;14.25;8.83;;;;;;;24.98;40.61;99526.08;1702672;82;21053;-42
2021/09/12 00:53:37;;;;;;;12.23;8.80;;;;;;;24.97;40.62;99521.71;1677573;83;21589;-42
2021/09/12 00:56:05;;;;;;;12.85;8.95;;;;;;;24.97;40.63;99520.36;1700048;82;21092;-42
2021/09/12 00:58:31;;;;;;;12.07;8.85;;;;;;;24.97;40.66;99516.33;1670433;82;21154;-42
2021/09/12 01:00:57;;;;;;;12.40;9.05;;;;;;;24.97;40.63;99522.55;1658661;83;20916;-43
2021/09/12 01:03:24;;;;;;;12.10;9.45;;;;;;;24.97;40.65;99517.67;1668334;83;21554;-41
2021/09/12 01:05:51;;;;;;;15.50;9.50;;;;;;;24.97;40.66;99517.16;1699154;82;21061;-41
2021/09/12 01:08:19;;;;;;;13.65;9.40;;;;;;;24.98;40.64;99512.63;1704568;82;21007;-41
2021/09/12 01:10:48;;;;;;;14.40;10.08;;;;;;;24.98;40.65;99512.63;1686949;82;21025;-40
2021/09/12 01:13:14;;;;;;;14.40;10.03;;;;;;;24.97;40.66;99517.16;1694250;82;21070;-45
2021/09/12 01:15:43;;;;;;;14.68;9.90;;;;;;;24.97;40.66;99513.13;1696646;81;21578;-42
2021/09/12 01:18:09;;;;;;;12.85;9.40;;;;;;;24.97;40.65;99514.98;1682953;83;21512;-42
2021/09/12 01:20:36;;;;;;;13.03;9.55;;;;;;;24.97;40.66;99513.64;1713871;81;21198;-41
2021/09/12 01:23:06;;;;;;;12.95;9.20;;;;;;;24.97;40.69;99519.02;1734422;82;21048;-42
2021/09/12 01:25:35;;;;;;;17.37;9.85;;;;;;;24.97;40.71;99519.02;1715478;81;21683;-41
2021/09/12 01:28:05;;;;;;;11.40;8.90;;;;;;;24.97;40.71;99524.40;1717231;82;22234;-41
2021/09/12 01:30:33;;;;;;;12.73;9.20;;;;;;;24.97;40.74;99519.86;1728915;81;20961;-42
2021/09/12 01:33:00;;;;;;;14.10;9.60;;;;;;;24.98;40.71;99516.66;1681227;83;21065;-41
2021/09/12 01:35:26;;;;;;;17.23;10.05;;;;;;;24.97;40.75;99516.33;1687547;83;21051;-41
2021/09/12 01:37:53;;;;;;;13.78;9.95;;;;;;;24.97;40.74;99519.02;1695525;82;21548;-42
2021/09/12 01:40:20;;;;;;;15.63;8.80;;;;;;;24.98;40.75;99518.00;1716956;82;20991;-43
2021/09/12 01:42:46;;;;;;;13.10;9.80;;;;;;;24.97;40.76;99524.40;1671806;83;21610;-42
2021/09/12 01:45:14;;;;;;;17.20;9.68;;;;;;;24.97;40.78;99516.33;1699815;81;21097;-42
2021/09/12 01:47:45;;;;;;;16.42;9.33;;;;;;;24.96;40.76;99514.11;1687947;83;21580;-42
2021/09/12 01:50:09;;;;;;;15.15;9.48;;;;;;;24.97;40.78;99516.33;1703237;82;21545;-42
2021/09/12 01:52:36;;;;;;;12.73;9.13;;;;;;;24.97;40.76;99517.67;1717020;81;21027;-41
2021/09/12 01:55:05;;;;;;;11.83;9.20;;;;;;;24.96;40.78;99520.84;1701808;82;21058;-41
2021/09/12 01:57:32;;;;;;;12.90;8.50;;;;;;;24.96;40.80;99512.77;1722824;81;21039;-42
2021/09/12 01:59:58;;;;;;;12.60;9.28;;;;;;;24.96;40.80;99515.96;1724574;81;23362;-42
2021/09/12 02:02:24;;;;;;;13.10;9.10;;;;;;;24.96;40.79;99510.07;1707423;82;21098;-41
2021/09/12 02:04:50;;;;;;;12.93;9.48;;;;;;;24.96;40.82;99506.03;1681380;82;20958;-40
2021/09/12 02:07:17;;;;;;;12.20;9.18;;;;;;;24.96;40.82;99504.69;1709656;79;21250;-42
2021/09/12 02:09:45;;;;;;;11.43;8.95;;;;;;;24.97;40.86;99504.22;1660705;82;21173;-42
2021/09/12 02:12:13;;;;;;;13.80;9.60;;;;;;;24.96;40.85;99508.73;1699198;83;21141;-42
2021/09/12 02:14:39;;;;;;;13.00;8.70;;;;;;;24.97;40.85;99512.29;1710158;82;21717;-41
2021/09/12 02:17:07;;;;;;;15.05;9.65;;;;;;;24.97;40.87;99505.56;1709575;82;21950;-41
2021/09/12 02:19:34;;;;;;;16.27;8.75;;;;;;;24.97;40.88;99510.94;1707210;82;21019;-41
2021/09/12 02:22:00;;;;;;;15.15;10.05;;;;;;;24.96;40.88;99509.23;1710125;82;21083;-42
2021/09/12 02:24:28;;;;;;;15.00;9.88;;;;;;;24.97;40.92;99506.91;1707102;81;21013;-42
2021/09/12 02:26:56;;;;;;;11.95;9.33;;;;;;;24.96;40.90;99507.89;1706337;82;21167;-42
2021/09/12 02:29:24;;;;;;;12.10;8.90;;;;;;;24.96;40.90;99511.92;1712070;81;21098;-43
2021/09/12 02:31:53;;;;;;;10.90;9.13;;;;;;;24.96;40.93;99509.23;1698743;82;21071;-42
2021/09/12 02:34:19;;;;;;;12.35;8.95;;;;;;;24.96;40.94;99506.03;1706789;82;20984;-41
2021/09/12 02:36:46;;;;;;;12.45;9.60;;;;;;;24.95;40.93;99503.02;1689704;83;21133;-42
2021/09/12 02:39:13;;;;;;;11.83;8.98;;;;;;;24.95;40.94;99505.70;1665489;83;21011;-41
2021/09/12 02:41:39;;;;;;;11.75;8.75;;;;;;;24.96;40.95;99504.69;1647975;83;21745;-40
2021/09/12 02:44:06;;;;;;;13.05;9.55;;;;;;;24.96;40.96;99503.85;1677839;83;21148;-41
2021/09/12 02:46:32;;;;;;;12.55;9.38;;;;;;;24.96;40.96;99501.16;1712545;81;20972;-42
2021/09/12 02:48:59;;;;;;;11.63;9.45;;;;;;;24.95;40.96;99499.45;1703897;82;21078;-42
2021/09/12 02:51:27;;;;;;;14.35;9.23;;;;;;;24.95;40.97;99502.14;1712088;81;21006;-41
2021/09/12 02:53:53;;;;;;;11.90;9.10;;;;;;;24.96;40.99;99501.16;1715638;81;20983;-44
2021/09/12 02:56:21;;;;;;;12.18;8.78;;;;;;;24.95;40.99;99503.48;1719495;81;21098;-42
2021/09/12 02:58:49;;;;;;;13.05;9.63;;;;;;;24.95;40.99;99504.83;1720677;80;21683;-41
2021/09/12 03:01:18;;;;;;;12.35;9.43;;;;;;;24.95;41.00;99499.45;1734019;81;21953;-44
2021/09/12 03:03:45;;;;;;;12.75;9.48;;;;;;;24.95;41.01;99499.45;1683097;83;21040;-40
2021/09/12 03:06:11;;;;;;;12.50;9.23;;;;;;;24.95;41.02;99499.45;1683009;83;22293;-41
2021/09/12 03:08:39;;;;;;;10.60;8.80;;;;;;;24.96;41.01;99502.00;1711696;81;21098;-42
2021/09/12 03:11:06;;;;;;;13.45;9.60;;;;;;;24.95;41.03;99499.45;1682276;82;21108;-41
2021/09/12 03:13:33;;;;;;;12.30;9.70;;;;;;;24.95;41.06;99493.59;1644415;84;22072;-41
2021/09/12 03:16:00;;;;;;;9.53;8.20;;;;;;;24.95;41.06;99492.72;1663222;83;21019;-43
2021/09/12 03:18:26;;;;;;;12.33;9.08;;;;;;;24.94;41.01;99491.88;1660655;84;21162;-41
2021/09/12 03:20:54;;;;;;;11.63;9.03;;;;;;;24.95;41.04;99492.72;1655510;84;22163;-41
2021/09/12 03:23:22;;;;;;;13.85;9.50;;;;;;;24.95;41.04;99488.69;1677172;83;21094;-41
2021/09/12 03:25:50;;;;;;;16.02;8.98;;;;;;;24.96;41.06;99487.70;1668005;84;21048;-44
2021/09/12 03:28:17;;;;;;;13.28;9.65;;;;;;;24.95;41.06;99490.91;1665335;83;21052;-41
2021/09/12 03:30:44;;;;;;;12.65;9.28;;;;;;;24.95;41.07;99485.99;1695935;82;21109;-42
2021/09/12 03:33:14;;;;;;;10.93;8.58;;;;;;;24.96;41.03;99486.36;1699057;81;21204;-41
2021/09/12 03:35:39;;;;;;;9.48;8.10;;;;;;;24.96;41.05;99487.19;1711689;82;21011;-42
2021/09/12 03:38:05;;;;;;;13.05;9.20;;;;;;;24.97;41.07;99492.10;1677605;82;21063;-40
2021/09/12 03:40:32;;;;;;;13.13;8.90;;;;;;;24.97;41.05;99491.59;1721349;82;21025;-41
2021/09/12 03:42:59;;;;;;;10.78;8.90;;;;;;;24.98;41.02;99491.09;1663147;83;22540;-42
2021/09/12 03:45:25;;;;;;;15.72;8.70;;;;;;;24.98;41.06;99492.44;1656054;84;21024;-41
2021/09/12 03:47:51;;;;;;;11.80;8.75;;;;;;;24.99;41.01;99492.80;1669398;83;21465;-42
2021/09/12 03:50:20;;;;;;;11.70;9.13;;;;;;;25.00;41.03;99491.31;1671151;82;22276;-41
2021/09/12 03:52:46;;;;;;;11.57;9.18;;;;;;;25.02;40.99;99496.55;1666695;83;21633;-41
2021/09/12 03:55:13;;;;;;;11.68;8.83;;;;;;;25.05;40.96;99494.91;1712152;82;21119;-41
2021/09/12 03:57:39;;;;;;;13.18;8.93;;;;;;;25.08;40.89;99493.76;1700549;82;21125;-41
2021/09/12 04:00:09;;;;;;;10.55;8.65;;;;;;;25.10;40.85;99500.70;1676370;83;21091;-43
2021/09/12 04:02:39;;;;;;;12.43;9.33;;;;;;;25.14;40.80;99499.40;1693251;83;21090;-41
2021/09/12 04:05:08;;;;;;;13.68;8.88;;;;;;;25.17;40.75;99501.80;1696264;83;21061;-42
2021/09/12 04:07:37;;;;;;;12.28;8.35;;;;;;;25.22;40.66;99499.52;1660515;83;22231;-40
2021/09/12 04:10:07;;;;;;;10.68;8.43;;;;;;;25.27;40.58;99497.77;1700468;82;21071;-42
2021/09/12 04:12:34;;;;;;;11.63;8.75;;;;;;;25.32;40.48;99501.37;1685481;81;21043;-42
2021/09/12 04:15:03;;;;;;;11.95;8.68;;;;;;;25.39;40.39;99505.16;1695565;82;21079;-41
2021/09/12 04:17:30;;;;;;;10.75;8.18;;;;;;;25.45;40.24;99500.50;1687296;82;21831;-41
2021/09/12 04:19:58;;;;;;;12.28;9.30;;;;;;;25.51;40.12;99493.17;1682149;82;21092;-41
2021/09/12 04:22:24;;;;;;;12.95;9.63;;;;;;;25.58;40.00;99496.12;1693135;82;21057;-41
2021/09/12 04:24:50;;;;;;;9.90;8.65;;;;;;;25.65;39.87;99490.98;1686054;83;21547;-44
2021/09/12 04:27:18;;;;;;;11.18;8.50;;;;;;;25.72;39.75;99490.71;1666646;83;21515;-42
2021/09/12 04:29:45;;;;;;;14.20;9.20;;;;;;;25.80;39.61;99492.16;1665215;82;21430;-42
2021/09/12 04:32:12;;;;;;;10.53;8.70;;;;;;;25.86;39.48;99490.72;1670457;83;21187;-41
2021/09/12 04:34:38;;;;;;;14.50;8.95;;;;;;;25.93;39.35;99491.80;1668789;80;21134;-42
2021/09/12 04:37:05;;;;;;;26.45;13.78;;;;;;;26.00;39.19;99486.67;1668875;83;21758;-41
2021/09/12 04:39:31;;;;;;;22.77;13.30;;;;;;;26.06;39.22;99487.42;1679902;83;21128;-42
2021/09/12 04:41:58;;;;;;;21.40;13.53;;;;;;;26.11;39.46;99487.80;1688299;82;21007;-43
2021/09/12 04:44:24;;;;;;;21.70;12.68;;;;;;;26.11;37.76;99481.90;1691598;82;21060;-41
2021/09/12 04:46:51;;;;;;;20.97;13.43;;;;;;;26.05;35.86;99481.66;1691112;82;21123;-41
2021/09/12 04:49:17;;;;;;;23.32;14.10;;;;;;;25.95;34.60;99475.83;1693580;82;21032;-41
2021/09/12 04:51:45;;;;;;;25.75;15.32;;;;;;;25.84;36.70;99477.39;1688279;82;21109;-42
2021/09/12 04:54:13;;;;;;;42.13;21.60;;;;;;;25.76;39.05;99482.69;1673384;82;21108;-42
2021/09/12 04:56:39;;;;;;;52.25;29.02;;;;;;;25.66;40.63;99471.97;1695642;80;21052;-41
2021/09/12 04:59:07;;;;;;;56.18;28.05;;;;;;;25.63;41.08;99471.42;1709856;82;21098;-42
2021/09/12 05:01:37;;;;;;;40.58;23.60;;;;;;;25.60;41.22;99471.21;1698952;81;21524;-41
2021/09/12 05:04:04;;;;;;;52.58;28.02;;;;;;;25.62;40.29;99477.80;1662672;83;21171;-40
2021/09/12 05:06:31;;;;;;;61.83;32.15;;;;;;;25.58;39.08;99471.88;1657321;83;21063;-40
2021/09/12 05:08:57;;;;;;;77.17;36.93;;;;;;;25.50;39.09;99468.60;1684181;82;21546;-40
2021/09/12 05:11:25;;;;;;;70.52;37.42;;;;;;;25.49;39.40;99468.23;1711359;82;21023;-38
2021/09/12 05:13:53;;;;;;;67.15;37.03;;;;;;;25.50;39.35;99464.56;1697640;82;21185;-41
2021/09/12 05:16:20;;;;;;;65.52;34.00;;;;;;;25.55;39.40;99461.39;1691094;81;21168;-41
2021/09/12 05:18:50;;;;;;;74.37;38.70;;;;;;;25.59;39.62;99458.25;1660265;83;21053;-38
2021/09/12 05:21:17;;;;;;;91.65;48.75;;;;;;;25.64;39.88;99462.33;1704951;81;21058;-39
2021/09/12 05:23:44;;;;;;;91.85;49.98;;;;;;;25.68;40.14;99461.04;1691900;82;21012;-40
2021/09/12 05:26:12;;;;;;;87.40;49.27;;;;;;;25.69;40.22;99460.89;1697549;81;21149;-40
2021/09/12 05:28:39;;;;;;;83.60;45.70;;;;;;;25.72;40.15;99462.42;1659436;84;22214;-39
2021/09/12 05:31:05;;;;;;;85.65;46.08;;;;;;;25.74;40.22;99457.75;1700297;81;21115;-37
2021/09/12 05:33:32;;;;;;;81.72;45.70;;;;;;;25.77;40.35;99454.72;1692243;82;21080;-38
2021/09/12 05:35:59;;;;;;;85.47;43.52;;;;;;;25.78;40.26;99454.58;1691684;82;21014;-41
2021/09/12 05:38:25;;;;;;;86.95;43.23;;;;;;;25.81;40.21;99453.44;1698953;82;21558;-41
2021/09/12 05:40:52;;;;;;;79.17;41.00;;;;;;;25.85;40.08;99450.77;1686066;82;21082;-41
2021/09/12 05:43:18;;;;;;;74.47;40.75;;;;;;;25.89;39.99;99456.22;1710901;82;21042;-42
2021/09/12 05:45:45;;;;;;;74.92;37.93;;;;;;;25.93;39.91;99456.75;1693131;82;21676;-40
2021/09/12 05:48:11;;;;;;;74.53;38.33;;;;;;;25.97;39.89;99461.36;1700800;82;21093;-39
2021/09/12 05:50:39;;;;;;;78.87;37.88;;;;;;;26.00;40.24;99454.33;1701651;82;21581;-40
2021/09/12 05:53:06;;;;;;;69.70;36.58;;;;;;;26.03;40.15;99449.98;1632656;83;21190;-41
2021/09/12 05:55:33;;;;;;;69.27;36.85;;;;;;;26.03;40.14;99454.02;1643290;84;21103;-39
2021/09/12 05:57:59;;;;;;;68.40;35.78;;;;;;;26.04;40.09;99458.39;1678024;83;21151;-41
2021/09/12 06:00:27;;;;;;;66.02;36.45;;;;;;;26.06;40.00;99457.25;1677007;82;21119;-40
2021/09/12 06:02:54;;;;;;;62.53;32.45;;;;;;;26.09;39.94;99453.38;1673679;83;21054;-38
2021/09/12 06:05:20;;;;;;;61.75;33.88;;;;;;;26.12;39.90;99462.00;1666501;82;22365;-40
2021/09/12 06:07:48;;;;;;;65.35;34.15;;;;;;;26.15;39.84;99460.86;1647952;84;21582;-39
2021/09/12 06:10:16;;;;;;;60.00;34.08;;;;;;;26.17;39.75;99461.55;1704405;81;21122;-40
2021/09/12 06:12:44;;;;;;;59.53;32.63;;;;;;;26.21;39.73;99464.30;1709800;81;21059;-39
2021/09/12 06:15:12;;;;;;;43.63;25.17;;;;;;;26.24;39.70;99465.34;1683619;83;21055;-39
2021/09/12 06:17:38;;;;;;;57.83;30.25;;;;;;;26.24;39.43;99461.30;1677711;82;21104;-38
2021/09/12 06:20:07;;;;;;;55.40;30.80;;;;;;;26.20;38.29;99458.55;1694388;82;21103;-39
2021/09/12 06:22:34;;;;;;;39.90;22.62;;;;;;;26.15;36.83;99464.91;1696293;81;21031;-39
2021/09/12 06:25:01;;;;;;;35.40;22.00;;;;;;;26.10;38.21;99465.88;1668595;83;21987;-42
2021/09/12 06:27:27;;;;;;;32.63;19.80;;;;;;;26.01;39.48;99462.73;1684421;83;22177;-38
2021/09/12 06:29:54;;;;;;;31.55;19.48;;;;;;;25.88;39.62;99461.76;1686054;82;21158;-39
2021/09/12 06:32:20;;;;;;;28.40;17.23;;;;;;;25.79;39.78;99464.88;1673334;83;21694;-38
2021/09/12 06:34:47;;;;;;;28.02;17.52;;;;;;;25.75;39.94;99469.69;1698094;82;21153;-39
2021/09/12 06:37:13;;;;;;;24.20;15.48;;;;;;;25.72;39.33;99469.16;1727356;81;21043;-39
2021/09/12 06:39:40;;;;;;;19.37;13.13;;;;;;;25.65;38.10;99477.50;1693940;80;21079;-37
2021/09/12 06:42:06;;;;;;;23.75;13.60;;;;;;;25.57;38.25;99472.38;1721282;80;21057;-39
2021/09/12 06:44:33;;;;;;;18.07;12.58;;;;;;;25.45;39.24;99474.91;1723939;80;21474;-40
2021/09/12 06:47:00;;;;;;;18.82;11.78;;;;;;;25.35;39.21;99476.80;1711691;81;21137;-38
2021/09/12 06:49:28;;;;;;;15.85;11.53;;;;;;;25.28;39.61;99483.80;1715912;81;21113;-38
2021/09/12 06:51:56;;;;;;;15.75;11.30;;;;;;;25.30;39.70;99479.09;1715010;80;21066;-39
2021/09/12 06:54:23;;;;;;;26.30;11.57;;;;;;;25.33;39.59;99480.16;1726011;80;21123;-38
2021/09/12 06:56:49;;;;;;;14.90;10.45;;;;;;;25.37;39.14;99482.91;1705702;81;21478;-40
2021/09/12 06:59:16;;;;;;;12.75;9.63;;;;;;;25.37;37.98;99485.61;1667141;83;21069;-38
2021/09/12 07:01:44;;;;;;;15.80;11.43;;;;;;;25.35;38.32;99479.50;1686266;82;21569;-39
2021/09/12 07:04:10;;;;;;;16.12;11.15;;;;;;;25.26;39.28;99487.11;1702328;81;21091;-37
2021/09/12 07:06:37;;;;;;;15.25;11.33;;;;;;;25.18;39.44;99486.02;1723741;81;21961;-38
2021/09/12 07:09:04;;;;;;;16.12;10.28;;;;;;;25.14;39.80;99483.25;1709854;81;21070;-39
2021/09/12 07:11:32;;;;;;;13.68;10.25;;;;;;;25.14;39.78;99487.28;1717677;81;21035;-38
2021/09/12 07:13:59;;;;;;;14.55;9.53;;;;;;;25.13;39.92;99492.34;1695935;81;21075;-41
2021/09/12 07:16:26;;;;;;;14.83;10.03;;;;;;;25.15;39.87;99490.81;1695075;82;21095;-39
2021/09/12 07:18:53;;;;;;;14.53;9.70;;;;;;;25.15;39.53;99491.69;1721522;81;21813;-39
2021/09/12 07:21:19;;;;;;;13.72;10.10;;;;;;;25.15;38.41;99495.72;1715035;81;21162;-39
2021/09/12 07:23:46;;;;;;;16.12;9.10;;;;;;;25.13;38.05;99489.64;1709228;80;22140;-38
2021/09/12 07:26:12;;;;;;;14.18;9.43;;;;;;;25.13;39.40;99490.99;1718176;80;21063;-38
2021/09/12 07:28:39;;;;;;;12.10;9.23;;;;;;;25.10;39.28;99485.03;1707110;79;21532;-39
2021/09/12 07:31:06;;;;;;;13.53;9.33;;;;;;;25.02;39.38;99487.97;1712186;80;21739;-38
2021/09/12 07:33:32;;;;;;;11.80;8.83;;;;;;;25.00;39.52;99490.47;1712026;81;21154;-39
2021/09/12 07:35:59;;;;;;;14.85;8.95;;;;;;;24.96;39.07;99491.73;1704877;81;21565;-39
2021/09/12 07:38:26;;;;;;;16.05;9.05;;;;;;;24.89;39.52;99494.67;1717002;80;21662;-39
2021/09/12 07:40:52;;;;;;;12.65;9.98;;;;;;;24.89;39.64;99495.51;1725639;81;21038;-40
2021/09/12 07:43:19;;;;;;;16.10;9.65;;;;;;;24.94;39.55;99495.08;1719171;81;21072;-40
2021/09/12 07:45:46;;;;;;;19.90;9.55;;;;;;;24.95;39.60;99493.59;1722819;80;21078;-42
2021/09/12 07:48:13;;;;;;;15.32;9.80;;;;;;;24.94;39.63;99487.01;1722606;81;21030;-40
2021/09/12 07:50:39;;;;;;;15.85;9.00;;;;;;;24.96;38.60;99491.23;1712967;81;21043;-40
2021/09/12 07:53:05;;;;;;;11.95;9.18;;;;;;;24.95;38.35;99496.28;1719657;80;21186;-39
2021/09/12 07:55:34;;;;;;;13.22;9.10;;;;;;;24.95;39.77;99490.03;1704664;82;21094;-41
2021/09/12 07:58:00;;;;;;;12.05;8.68;;;;;;;24.92;40.02;99497.92;1704212;82;20997;-40
2021/09/12 08:00:26;;;;;;;12.13;8.40;;;;;;;24.89;39.75;99502.23;1681394;82;20990;-41
2021/09/12 08:02:53;;;;;;;15.10;8.93;;;;;;;24.83;39.83;99498.30;1670324;83;21590;-41
2021/09/12 08:05:20;;;;;;;18.73;8.75;;;;;;;24.80;39.75;99498.58;1684818;82;20984;-40
2021/09/12 08:07:46;;;;;;;14.38;8.95;;;;;;;24.78;39.95;99495.67;1711170;80;21213;-40
2021/09/12 08:10:12;;;;;;;11.55;8.35;;;;;;;24.77;40.05;99494.83;1723456;81;21103;-41
2021/09/12 08:12:39;;;;;;;12.78;8.45;;;;;;;24.78;39.90;99490.29;1719184;81;21110;-41
2021/09/12 08:15:09;;;;;;;10.53;8.68;;;;;;;24.75;39.92;99491.44;1652413;84;21122;-41
2021/09/12 08:17:35;;;;;;;9.63;8.40;;;;;;;24.74;39.26;99485.70;1644782;84;21010;-41
2021/09/12 08:20:04;;;;;;;8.55;7.40;;;;;;;24.73;38.25;99486.71;1702238;81;22069;-41
2021/09/12 08:22:31;;;;;;;9.25;7.85;;;;;;;24.73;39.24;99493.44;1694228;81;21480;-41
2021/09/12 08:24:59;;;;;;;10.58;7.90;;;;;;;24.70;39.67;99488.34;1681400;82;21073;-39
2021/09/12 08:27:26;;;;;;;10.95;8.18;;;;;;;24.69;39.83;99489.32;1685851;83;21044;-40
2021/09/12 08:29:52;;;;;;;9.20;7.62;;;;;;;24.67;39.77;99489.97;1697397;82;21084;-39
2021/09/12 08:32:20;;;;;;;9.00;7.42;;;;;;;24.68;39.40;99490.33;1708987;82;21945;-40
2021/09/12 08:34:46;;;;;;;13.25;7.40;;;;;;;24.65;39.12;99486.58;1718687;81;21110;-41
2021/09/12 08:37:13;;;;;;;8.90;6.97;;;;;;;24.62;39.31;99484.17;1715617;81;21517;-40
2021/09/12 08:39:39;;;;;;;10.03;6.83;;;;;;;24.65;39.50;99483.89;1680332;82;21097;-41
2021/09/12 08:42:06;;;;;;;9.65;6.97;;;;;;;24.66;39.16;99481.53;1635235;85;21034;-41
2021/09/12 08:44:32;;;;;;;8.65;7.00;;;;;;;24.71;38.90;99480.60;1711288;81;21080;-39
2021/09/12 08:46:59;;;;;;;10.05;7.33;;;;;;;24.75;38.48;99483.37;1701658;79;21436;-41
2021/09/12 08:49:25;;;;;;;10.50;7.53;;;;;;;24.80;37.54;99489.16;1694828;82;20976;-41
2021/09/12 08:51:51;;;;;;;10.10;6.55;;;;;;;24.84;38.57;99490.55;1720178;80;21530;-42
2021/09/12 08:54:18;;;;;;;16.60;7.08;;;;;;;24.87;38.59;99489.94;1718829;80;21161;-39
2021/09/12 08:56:44;;;;;;;9.25;7.12;;;;;;;24.87;38.01;99495.32;1732775;80;21720;-38
2021/09/12 08:59:30;;;;;;;9.73;7.20;;;;;;;24.85;37.98;99485.54;1713826;81;21060;-38
2021/09/12 09:01:58;;;;;;;7.70;6.83;;;;;;;24.91;38.05;99479.22;1646455;83;21249;-39
2021/09/12 09:04:30;;;;;;;11.90;6.67;;;;;;;24.98;37.84;99480.33;1669949;83;22263;-39
2021/09/12 09:07:11;;;;;;;10.50;6.85;;;;;;;25.03;37.55;99484.29;1682516;83;21158;-41
2021/09/12 09:09:46;;;;;;;11.48;6.92;;;;;;;25.07;37.61;99483.50;1705345;82;21217;-41
2021/09/12 09:12:35;;;;;;;12.63;7.22;;;;;;;25.09;37.11;99482.84;1709148;81;21032;-39
2021/09/12 09:15:16;;;;;;;10.25;6.47;;;;;;;25.11;36.46;99480.84;1684618;82;21051;-40
2021/09/12 09:17:52;;;;;;;8.53;6.42;;;;;;;25.09;37.47;99480.15;1694817;82;21060;-40
2021/09/12 09:20:29;;;;;;;9.35;6.92;;;;;;;25.08;37.86;99482.98;1686080;83;21503;-39
2021/09/12 09:22:57;;;;;;;10.00;7.10;;;;;;;25.10;38.05;99479.16;1686263;83;21828;-40
2021/09/12 09:25:26;;;;;;;7.87;7.00;;;;;;;25.13;37.59;99480.70;1683129;82;21487;-41
2021/09/12 09:28:06;;;;;;;10.80;7.65;;;;;;;25.16;37.57;99473.17;1688657;81;21545;-40
2021/09/12 09:30:36;;;;;;;8.73;7.15;;;;;;;25.20;37.74;99474.59;1663607;84;21013;-38
2021/09/12 09:33:22;;;;;;;12.88;6.90;;;;;;;25.24;37.82;99463.53;1663418;83;21981;-39
2021/09/12 09:35:57;;;;;;;12.43;7.28;;;;;;;25.29;37.68;99464.80;1698519;81;23316;-37
2021/09/12 09:38:27;;;;;;;12.37;9.43;;;;;;;25.32;36.88;99459.63;1707115;81;21099;-40
2021/09/12 09:41:17;;;;;;;10.05;8.25;;;;;;;25.32;36.69;99455.59;1701855;81;21534;-41
2021/09/12 09:43:52;;;;;;;11.90;8.75;;;;;;;25.31;37.40;99461.95;1681583;83;21931;-40
2021/09/12 09:46:37;;;;;;;9.23;8.15;;;;;;;25.30;37.83;99457.55;1638997;84;21696;-40
2021/09/12 09:49:28;;;;;;;12.43;8.15;;;;;;;25.32;37.87;99455.59;1652659;84;21141;-41
2021/09/12 09:51:58;;;;;;;9.93;8.15;;;;;;;25.35;37.87;99460.64;1649803;82;21664;-40
2021/09/12 09:54:28;;;;;;;9.45;7.20;;;;;;;25.37;37.98;99455.98;1676087;83;21020;-39
2021/09/12 09:56:55;;;;;;;9.00;7.17;;;;;;;25.40;37.59;99457.00;1712577;81;21102;-41
2021/09/12 09:59:23;;;;;;;7.55;6.85;;;;;;;25.42;37.44;99459.08;1706880;81;21683;-40
2021/09/12 10:01:53;;;;;;;9.65;6.97;;;;;;;25.44;36.58;99457.07;1716621;81;21114;-40
2021/09/12 10:04:27;;;;;;;8.15;7.10;;;;;;;25.42;36.27;99447.43;1692526;83;20965;-42
2021/09/12 10:06:53;;;;;;;11.10;7.15;;;;;;;25.39;37.43;99448.59;1705016;82;21089;-40
2021/09/12 10:09:21;;;;;;;10.23;6.83;;;;;;;25.38;37.62;99448.23;1688792;81;21007;-39
2021/09/12 10:11:55;;;;;;;10.30;7.20;;;;;;;25.38;37.49;99450.42;1718113;80;22218;-42
2021/09/12 10:14:33;;;;;;;9.93;7.45;;;;;;;25.40;37.56;99449.80;1723254;80;24473;-40
2021/09/12 10:16:59;;;;;;;7.67;6.95;;;;;;;25.42;37.09;99448.30;1714898;81;21657;-39
2021/09/12 10:19:38;;;;;;;9.10;7.22;;;;;;;25.41;36.89;99456.02;1718647;80;21024;-40
2021/09/12 10:22:16;;;;;;;10.85;7.28;;;;;;;25.42;37.21;99453.69;1715429;81;21011;-40
2021/09/12 10:25:07;;;;;;;8.85;7.08;;;;;;;25.47;37.07;99448.70;1730738;80;21253;-40
2021/09/12 10:27:44;;;;;;;8.60;6.83;;;;;;;25.49;36.00;99451.23;1723596;80;21129;-40
2021/09/12 10:30:37;;;;;;;7.47;6.75;;;;;;;25.46;36.83;99445.64;1718803;80;21580;-41
2021/09/12 10:33:16;;;;;;;9.10;6.85;;;;;;;25.45;37.36;99441.23;1688046;81;21073;-40
2021/09/12 10:35:49;;;;;;;7.40;6.67;;;;;;;25.46;37.59;99441.59;1715095;81;22070;-39
2021/09/12 10:38:36;;;;;;;11.43;7.37;;;;;;;25.46;36.88;99436.21;1726546;80;21516;-40
2021/09/12 10:41:08;;;;;;;7.75;6.22;;;;;;;25.48;36.97;99436.90;1719258;80;21051;-38
2021/09/12 10:43:46;;;;;;;9.35;7.53;;;;;;;25.52;37.19;99434.27;1724157;80;21568;-39
2021/09/12 10:46:20;;;;;;;10.13;7.20;;;;;;;25.55;37.35;99433.97;1716284;80;20992;-39
2021/09/12 10:49:04;;;;;;;7.75;6.90;;;;;;;25.60;37.32;99426.76;1684275;83;21121;-41
2021/09/12 10:51:33;;;;;;;7.53;6.72;;;;;;;25.64;36.29;99427.30;1708016;81;21822;-40
2021/09/12 10:54:00;;;;;;;10.25;7.90;;;;;;;25.61;36.25;99424.94;1656286;81;21097;-41
2021/09/12 10:56:32;;;;;;;47.85;35.65;;;;;;;25.58;36.96;99424.22;1702024;81;21103;-39
2021/09/12 10:59:03;;;;;;;55.78;37.65;;;;;;;25.58;37.63;99426.91;1704466;81;21633;-38
2021/09/12 11:01:42;;;;;;;41.77;30.10;;;;;;;25.62;37.75;99420.75;1698628;81;21066;-39
2021/09/12 11:04:12;;;;;;;32.75;25.80;;;;;;;25.67;37.94;99417.56;1699653;81;21334;-39
2021/09/12 11:06:44;;;;;;;29.40;21.42;;;;;;;25.71;37.95;99414.94;1699768;82;21218;-39
2021/09/12 11:09:23;;;;;;;24.87;19.15;;;;;;;25.73;37.99;99416.45;1696807;82;20982;-42
2021/09/12 11:11:57;;;;;;;25.43;17.35;;;;;;;25.76;37.82;99415.31;1689429;82;21007;-37
2021/09/12 11:14:24;;;;;;;21.90;14.68;;;;;;;25.76;36.56;99416.16;1677698;81;21034;-38
2021/09/12 11:16:51;;;;;;;21.07;14.18;;;;;;;25.74;36.42;99415.98;1716364;81;21079;-39
2021/09/12 11:19:19;;;;;;;13.68;9.65;;;;;;;25.71;36.88;99412.23;1684924;82;21585;-37
2021/09/12 11:21:52;;;;;;;14.80;8.98;;;;;;;25.70;36.61;99417.27;1694748;82;21084;-38
2021/09/12 11:24:27;;;;;;;13.68;10.95;;;;;;;25.68;36.45;99415.23;1702020;81;21020;-37
2021/09/12 11:27:02;;;;;;;11.78;10.35;;;;;;;25.67;36.66;99409.48;1712951;82;21051;-38
2021/09/12 11:29:32;;;;;;;12.23;9.53;;;;;;;25.70;36.86;99409.19;1703514;81;21128;-38
2021/09/12 11:32:14;;;;;;;10.60;8.83;;;;;;;25.74;36.81;99406.55;1708246;82;21172;-40